sensor_id;sensor_type;location;lat;lon;timestamp;temperature;humidity
2955;DHT22;1487;51.470;6.938;2023-03-01T00:00:16;-1.50;99.90
2955;DHT22;1487;51.470;6.938;2023-03-01T00:02:43;-1.60;99.90
2955;DHT22;1487;51.470;6.938;2023-03-01T00:05:10;-1.60;99.90
2955;DHT22;1487;51.470;6.938;2023-03-01T00:07:39;-1.60;99.90
2955;DHT22;1487;51.470;6.938;2023-03-01T00:10:07;-1.60;99.90
2955;DHT22;1487;51.470;6.938;2023-03-01T00:12:34;-1.70;99.90
2955;DHT22;1487;51.470;6.938;2023-03-01T00:15:02;-1.70;99.90
2955;DHT22;1487;51.470;6.938;2023-03-01T00:17:30;-1.70;99.90
2955;DHT22;1487;51.470;6.938;2023-03-01T00:19:57;-1.70;99.90
2955;DHT22;1487;51.470;6.938;2023-03-01T00:22:23;-1.60;99.90
2955;DHT22;1487;51.470;6.938;2023-03-01T00:24:52;-1.70;99.90
2955;DHT22;1487;51.470;6.938;2023-03-01T00:27:18;-1.70;99.90
2955;DHT22;1487;51.470;6.938;2023-03-01T00:29:45;-1.60;99.90
2955;DHT22;1487;51.470;6.938;2023-03-01T00:32:12;-1.60;99.90
2955;DHT22;1487;51.470;6.938;2023-03-01T00:34:39;-1.60;99.90
2955;DHT22;1487;51.470;6.938;2023-03-01T00:37:06;-1.70;99.90
2955;DHT22;1487;51.470;6.938;2023-03-01T00:39:33;-1.70;99.90
2955;DHT22;1487;51.470;6.938;2023-03-01T00:42:01;-1.70;99.90
2955;DHT22;1487;51.470;6.938;2023-03-01T00:44:28;-1.70;99.90
2955;DHT22;1487;51.470;6.938;2023-03-01T00:46:55;-1.80;99.90
2955;DHT22;1487;51.470;6.938;2023-03-01T00:49:21;-1.70;99.90
2955;DHT22;1487;51.470;6.938;2023-03-01T00:51:49;-1.70;99.90
2955;DHT22;1487;51.470;6.938;2023-03-01T00:54:16;-1.80;99.90
2955;DHT22;1487;51.470;6.938;2023-03-01T00:56:43;-1.80;99.90
2955;DHT22;1487;51.470;6.938;2023-03-01T00:59:11;-1.90;99.90
2955;DHT22;1487;51.470;6.938;2023-03-01T01:01:38;-1.90;99.90
2955;DHT22;1487;51.470;6.938;2023-03-01T01:04:07;-1.90;99.90
2955;DHT22;1487;51.470;6.938;2023-03-01T01:06:35;-2.00;99.90
2955;DHT22;1487;51.470;6.938;2023-03-01T01:09:05;-2.00;99.90
2955;DHT22;1487;51.470;6.938;2023-03-01T01:11:32;-2.00;99.90
2955;DHT22;1487;51.470;6.938;2023-03-01T01:14:00;-2.10;99.90
2955;DHT22;1487;51.470;6.938;2023-03-01T01:16:29;-2.10;99.90
2955;DHT22;1487;51.470;6.938;2023-03-01T01:18:57;-2.10;99.90
2955;DHT22;1487;51.470;6.938;2023-03-01T01:21:24;-2.10;99.90
2955;DHT22;1487;51.470;6.938;2023-03-01T01:23:52;-2.10;99.90
2955;DHT22;1487;51.470;6.938;2023-03-01T01:26:20;-2.10;99.90
2955;DHT22;1487;51.470;6.938;2023-03-01T01:28:48;-2.10;99.90
2955;DHT22;1487;51.470;6.938;2023-03-01T01:31:15;-2.10;99.90
2955;DHT22;1487;51.470;6.938;2023-03-01T01:33:44;-2.10;99.90
2955;DHT22;1487;51.470;6.938;2023-03-01T01:36:11;-2.20;99.90
2955;DHT22;1487;51.470;6.938;2023-03-01T01:38:38;-2.20;99.90
2955;DHT22;1487;51.470;6.938;2023-03-01T01:41:08;-2.20;99.90
2955;DHT22;1487;51.470;6.938;2023-03-01T01:43:38;-2.20;99.90
2955;DHT22;1487;51.470;6.938;2023-03-01T01:46:14;-2.20;99.90
2955;DHT22;1487;51.470;6.938;2023-03-01T01:48:47;-2.20;99.90
2955;DHT22;1487;51.470;6.938;2023-03-01T01:51:19;-2.20;99.90
2955;DHT22;1487;51.470;6.938;2023-03-01T01:53:51;-2.30;99.90
2955;DHT22;1487;51.470;6.938;2023-03-01T01:56:20;-2.30;99.90
2955;DHT22;1487;51.470;6.938;2023-03-01T01:58:47;-2.30;99.90
2955;DHT22;1487;51.470;6.938;2023-03-01T02:01:14;-2.30;99.90
2955;DHT22;1487;51.470;6.938;2023-03-01T02:03:44;-2.30;99.90
2955;DHT22;1487;51.470;6.938;2023-03-01T02:06:18;-2.30;99.90
2955;DHT22;1487;51.470;6.938;2023-03-01T02:08:47;-2.30;99.90
2955;DHT22;1487;51.470;6.938;2023-03-01T02:11:15;-2.40;99.90
2955;DHT22;1487;51.470;6.938;2023-03-01T02:13:44;-2.40;99.90
2955;DHT22;1487;51.470;6.938;2023-03-01T02:16:13;-2.40;99.90
2955;DHT22;1487;51.470;6.938;2023-03-01T02:18:41;-2.40;99.90
2955;DHT22;1487;51.470;6.938;2023-03-01T02:21:19;-2.40;99.90
2955;DHT22;1487;51.470;6.938;2023-03-01T02:23:48;-2.40;99.90
2955;DHT22;1487;51.470;6.938;2023-03-01T02:26:20;-2.40;99.90
2955;DHT22;1487;51.470;6.938;2023-03-01T02:28:51;-2.50;99.90
2955;DHT22;1487;51.470;6.938;2023-03-01T02:31:20;-2.40;99.90
2955;DHT22;1487;51.470;6.938;2023-03-01T02:34:05;-2.50;99.90
2955;DHT22;1487;51.470;6.938;2023-03-01T02:36:36;-2.40;99.90
2955;DHT22;1487;51.470;6.938;2023-03-01T02:39:05;-2.40;99.90
2955;DHT22;1487;51.470;6.938;2023-03-01T02:41:35;-2.50;99.90
2955;DHT22;1487;51.470;6.938;2023-03-01T02:44:03;-2.40;99.90
2955;DHT22;1487;51.470;6.938;2023-03-01T02:46:31;-2.30;99.90
2955;DHT22;1487;51.470;6.938;2023-03-01T02:48:59;-2.40;99.90
2955;DHT22;1487;51.470;6.938;2023-03-01T02:51:41;-2.30;99.90
2955;DHT22;1487;51.470;6.938;2023-03-01T02:54:16;-2.40;99.90
2955;DHT22;1487;51.470;6.938;2023-03-01T02:56:45;-2.50;99.90
2955;DHT22;1487;51.470;6.938;2023-03-01T02:59:16;-2.40;99.90
2955;DHT22;1487;51.470;6.938;2023-03-01T03:01:44;-2.50;99.90
2955;DHT22;1487;51.470;6.938;2023-03-01T03:04:15;-2.60;99.90
2955;DHT22;1487;51.470;6.938;2023-03-01T03:06:43;-2.60;99.90
2955;DHT22;1487;51.470;6.938;2023-03-01T03:09:11;-2.60;99.90
2955;DHT22;1487;51.470;6.938;2023-03-01T03:11:38;-2.60;99.90
2955;DHT22;1487;51.470;6.938;2023-03-01T03:14:06;-2.60;99.90
2955;DHT22;1487;51.470;6.938;2023-03-01T03:16:41;-2.60;99.90
2955;DHT22;1487;51.470;6.938;2023-03-01T03:19:08;-2.50;99.90
2955;DHT22;1487;51.470;6.938;2023-03-01T03:21:36;-2.50;99.90
2955;DHT22;1487;51.470;6.938;2023-03-01T03:24:03;-2.50;99.90
2955;DHT22;1487;51.470;6.938;2023-03-01T03:26:30;-2.60;99.90
2955;DHT22;1487;51.470;6.938;2023-03-01T03:28:57;-2.60;99.90
2955;DHT22;1487;51.470;6.938;2023-03-01T03:31:24;-2.60;99.90
2955;DHT22;1487;51.470;6.938;2023-03-01T03:33:53;-2.60;99.90
2955;DHT22;1487;51.470;6.938;2023-03-01T03:36:22;-2.60;99.90
2955;DHT22;1487;51.470;6.938;2023-03-01T03:38:49;-2.50;99.90
2955;DHT22;1487;51.470;6.938;2023-03-01T03:41:16;-2.50;99.90
2955;DHT22;1487;51.470;6.938;2023-03-01T03:43:44;-2.60;99.90
2955;DHT22;1487;51.470;6.938;2023-03-01T03:46:11;-2.60;99.90
2955;DHT22;1487;51.470;6.938;2023-03-01T03:48:40;-2.70;99.90
2955;DHT22;1487;51.470;6.938;2023-03-01T03:51:10;-2.70;99.90
2955;DHT22;1487;51.470;6.938;2023-03-01T03:53:37;-2.70;99.90
2955;DHT22;1487;51.470;6.938;2023-03-01T03:56:05;-2.70;99.90
2955;DHT22;1487;51.470;6.938;2023-03-01T03:58:32;-2.80;99.90
2955;DHT22;1487;51.470;6.938;2023-03-01T04:00:59;-2.70;99.90
2955;DHT22;1487;51.470;6.938;2023-03-01T04:03:28;-2.80;99.90
2955;DHT22;1487;51.470;6.938;2023-03-01T04:05:57;-2.80;99.90
2955;DHT22;1487;51.470;6.938;2023-03-01T04:08:26;-2.80;99.90
2955;DHT22;1487;51.470;6.938;2023-03-01T04:10:57;-2.90;99.90
2955;DHT22;1487;51.470;6.938;2023-03-01T04:13:24;-2.80;99.90
2955;DHT22;1487;51.470;6.938;2023-03-01T04:15:52;-2.90;99.90
2955;DHT22;1487;51.470;6.938;2023-03-01T04:18:20;-2.90;99.90
2955;DHT22;1487;51.470;6.938;2023-03-01T04:20:48;-2.90;99.90
2955;DHT22;1487;51.470;6.938;2023-03-01T04:23:19;-2.90;99.90
2955;DHT22;1487;51.470;6.938;2023-03-01T04:25:49;-3.00;99.90
2955;DHT22;1487;51.470;6.938;2023-03-01T04:28:19;-3.00;99.90
2955;DHT22;1487;51.470;6.938;2023-03-01T04:30:46;-3.10;99.90
2955;DHT22;1487;51.470;6.938;2023-03-01T04:33:13;-3.10;99.90
2955;DHT22;1487;51.470;6.938;2023-03-01T04:35:40;-3.20;99.90
2955;DHT22;1487;51.470;6.938;2023-03-01T04:38:07;-3.20;99.90
2955;DHT22;1487;51.470;6.938;2023-03-01T04:40:34;-3.30;99.90
2955;DHT22;1487;51.470;6.938;2023-03-01T04:43:03;-3.30;99.90
2955;DHT22;1487;51.470;6.938;2023-03-01T04:45:32;-3.20;99.90
2955;DHT22;1487;51.470;6.938;2023-03-01T04:48:00;-3.20;99.90
2955;DHT22;1487;51.470;6.938;2023-03-01T04:50:27;-3.20;99.90
2955;DHT22;1487;51.470;6.938;2023-03-01T04:52:54;-3.10;99.90
2955;DHT22;1487;51.470;6.938;2023-03-01T04:55:24;-3.10;99.90
2955;DHT22;1487;51.470;6.938;2023-03-01T04:57:51;-3.20;99.90
2955;DHT22;1487;51.470;6.938;2023-03-01T05:00:21;-3.30;99.90
2955;DHT22;1487;51.470;6.938;2023-03-01T05:02:50;-3.30;99.90
2955;DHT22;1487;51.470;6.938;2023-03-01T05:05:23;-3.30;99.90
2955;DHT22;1487;51.470;6.938;2023-03-01T05:07:54;-3.20;99.90
2955;DHT22;1487;51.470;6.938;2023-03-01T05:10:22;-3.20;99.90
2955;DHT22;1487;51.470;6.938;2023-03-01T05:12:50;-3.20;99.90
2955;DHT22;1487;51.470;6.938;2023-03-01T05:15:17;-3.20;99.90
2955;DHT22;1487;51.470;6.938;2023-03-01T05:17:48;-3.20;99.90
2955;DHT22;1487;51.470;6.938;2023-03-01T05:20:16;-3.20;99.90
2955;DHT22;1487;51.470;6.938;2023-03-01T05:22:43;-3.20;99.90
2955;DHT22;1487;51.470;6.938;2023-03-01T05:25:10;-3.20;99.90
2955;DHT22;1487;51.470;6.938;2023-03-01T05:27:39;-3.30;99.90
2955;DHT22;1487;51.470;6.938;2023-03-01T05:30:07;-3.30;99.90
2955;DHT22;1487;51.470;6.938;2023-03-01T05:32:44;-3.30;99.90
2955;DHT22;1487;51.470;6.938;2023-03-01T05:35:14;-3.30;99.90
2955;DHT22;1487;51.470;6.938;2023-03-01T05:37:43;-3.20;99.90
2955;DHT22;1487;51.470;6.938;2023-03-01T05:40:11;-3.20;99.90
2955;DHT22;1487;51.470;6.938;2023-03-01T05:42:45;-3.30;99.90
2955;DHT22;1487;51.470;6.938;2023-03-01T05:45:12;-3.30;99.90
2955;DHT22;1487;51.470;6.938;2023-03-01T05:47:40;-3.20;99.90
2955;DHT22;1487;51.470;6.938;2023-03-01T05:50:13;-3.20;99.90
2955;DHT22;1487;51.470;6.938;2023-03-01T05:52:45;-3.20;99.90
2955;DHT22;1487;51.470;6.938;2023-03-01T05:55:12;-3.10;99.90
2955;DHT22;1487;51.470;6.938;2023-03-01T05:57:39;-3.10;99.90
2955;DHT22;1487;51.470;6.938;2023-03-01T06:00:07;-3.10;99.90
2955;DHT22;1487;51.470;6.938;2023-03-01T06:02:34;-3.10;99.90
2955;DHT22;1487;51.470;6.938;2023-03-01T06:05:01;-3.10;99.90
2955;DHT22;1487;51.470;6.938;2023-03-01T06:07:29;-3.00;99.90
2955;DHT22;1487;51.470;6.938;2023-03-01T06:09:56;-3.10;99.90
2955;DHT22;1487;51.470;6.938;2023-03-01T06:12:23;-3.00;99.90
2955;DHT22;1487;51.470;6.938;2023-03-01T06:14:50;-3.10;99.90
2955;DHT22;1487;51.470;6.938;2023-03-01T06:17:17;-3.10;99.90
2955;DHT22;1487;51.470;6.938;2023-03-01T06:19:44;-3.10;99.90
2955;DHT22;1487;51.470;6.938;2023-03-01T06:22:10;-3.20;99.90
2955;DHT22;1487;51.470;6.938;2023-03-01T06:24:39;-3.20;99.90
2955;DHT22;1487;51.470;6.938;2023-03-01T06:27:05;-3.20;99.90
2955;DHT22;1487;51.470;6.938;2023-03-01T06:29:32;-3.20;99.90
2955;DHT22;1487;51.470;6.938;2023-03-01T06:31:59;-3.10;99.90
2955;DHT22;1487;51.470;6.938;2023-03-01T06:34:26;-3.00;99.90
2955;DHT22;1487;51.470;6.938;2023-03-01T06:36:53;-3.00;99.90
2955;DHT22;1487;51.470;6.938;2023-03-01T06:39:20;-2.90;99.90
2955;DHT22;1487;51.470;6.938;2023-03-01T06:41:48;-2.90;99.90
2955;DHT22;1487;51.470;6.938;2023-03-01T06:44:15;-2.80;99.90
2955;DHT22;1487;51.470;6.938;2023-03-01T06:46:42;-2.70;99.90
2955;DHT22;1487;51.470;6.938;2023-03-01T06:49:08;-2.70;99.90
2955;DHT22;1487;51.470;6.938;2023-03-01T06:51:36;-2.70;99.90
2955;DHT22;1487;51.470;6.938;2023-03-01T06:54:03;-2.60;99.90
2955;DHT22;1487;51.470;6.938;2023-03-01T06:56:30;-2.50;99.90
2955;DHT22;1487;51.470;6.938;2023-03-01T06:58:59;-2.40;99.90
2955;DHT22;1487;51.470;6.938;2023-03-01T07:01:26;-2.30;99.90
2955;DHT22;1487;51.470;6.938;2023-03-01T07:03:52;-2.20;99.90
2955;DHT22;1487;51.470;6.938;2023-03-01T07:06:19;-2.10;99.90
2955;DHT22;1487;51.470;6.938;2023-03-01T07:08:46;-2.00;99.90
2955;DHT22;1487;51.470;6.938;2023-03-01T07:11:13;-1.90;99.90
2955;DHT22;1487;51.470;6.938;2023-03-01T07:13:40;-1.70;99.90
2955;DHT22;1487;51.470;6.938;2023-03-01T07:16:08;-1.60;99.90
2955;DHT22;1487;51.470;6.938;2023-03-01T07:18:35;-1.50;99.90
2955;DHT22;1487;51.470;6.938;2023-03-01T07:21:06;-1.30;99.90
2955;DHT22;1487;51.470;6.938;2023-03-01T07:23:33;-1.20;99.90
2955;DHT22;1487;51.470;6.938;2023-03-01T07:25:59;-1.10;99.90
2955;DHT22;1487;51.470;6.938;2023-03-01T07:28:27;-1.10;99.90
2955;DHT22;1487;51.470;6.938;2023-03-01T07:30:54;-0.90;99.90
2955;DHT22;1487;51.470;6.938;2023-03-01T07:33:23;-0.90;99.90
2955;DHT22;1487;51.470;6.938;2023-03-01T07:35:56;-0.90;99.90
2955;DHT22;1487;51.470;6.938;2023-03-01T07:38:24;-0.90;99.90
2955;DHT22;1487;51.470;6.938;2023-03-01T07:40:51;-0.60;99.90
2955;DHT22;1487;51.470;6.938;2023-03-01T07:43:18;-0.10;99.90
2955;DHT22;1487;51.470;6.938;2023-03-01T07:45:46;0.30;99.90
2955;DHT22;1487;51.470;6.938;2023-03-01T07:48:12;0.90;99.90
2955;DHT22;1487;51.470;6.938;2023-03-01T07:50:41;1.60;99.90
2955;DHT22;1487;51.470;6.938;2023-03-01T07:53:08;2.40;99.90
2955;DHT22;1487;51.470;6.938;2023-03-01T07:55:35;3.00;99.90
2955;DHT22;1487;51.470;6.938;2023-03-01T07:58:02;3.50;99.90
2955;DHT22;1487;51.470;6.938;2023-03-01T08:00:29;4.10;99.90
2955;DHT22;1487;51.470;6.938;2023-03-01T08:02:58;5.20;99.90
2955;DHT22;1487;51.470;6.938;2023-03-01T08:05:25;5.60;99.90
2955;DHT22;1487;51.470;6.938;2023-03-01T08:07:54;5.50;99.90
2955;DHT22;1487;51.470;6.938;2023-03-01T08:10:20;5.80;99.90
2955;DHT22;1487;51.470;6.938;2023-03-01T08:12:47;6.20;99.90
2955;DHT22;1487;51.470;6.938;2023-03-01T08:15:14;7.00;96.20
2955;DHT22;1487;51.470;6.938;2023-03-01T08:17:41;8.00;92.60
2955;DHT22;1487;51.470;6.938;2023-03-01T08:20:09;8.90;88.70
2955;DHT22;1487;51.470;6.938;2023-03-01T08:22:37;9.70;83.10
2955;DHT22;1487;51.470;6.938;2023-03-01T08:25:06;10.70;75.10
2955;DHT22;1487;51.470;6.938;2023-03-01T08:27:33;11.30;68.40
2955;DHT22;1487;51.470;6.938;2023-03-01T08:30:00;11.90;66.40
2955;DHT22;1487;51.470;6.938;2023-03-01T08:32:27;12.50;63.90
2955;DHT22;1487;51.470;6.938;2023-03-01T08:34:54;13.30;60.60
2955;DHT22;1487;51.470;6.938;2023-03-01T08:37:21;13.70;58.10
2955;DHT22;1487;51.470;6.938;2023-03-01T08:39:47;14.40;58.40
2955;DHT22;1487;51.470;6.938;2023-03-01T08:42:16;15.50;57.00
2955;DHT22;1487;51.470;6.938;2023-03-01T08:44:43;16.90;56.20
2955;DHT22;1487;51.470;6.938;2023-03-01T08:47:09;17.80;52.30
2955;DHT22;1487;51.470;6.938;2023-03-01T08:49:36;17.90;49.90
2955;DHT22;1487;51.470;6.938;2023-03-01T08:52:04;18.40;48.90
2955;DHT22;1487;51.470;6.938;2023-03-01T08:54:31;18.70;48.00
2955;DHT22;1487;51.470;6.938;2023-03-01T08:56:58;19.60;48.70
2955;DHT22;1487;51.470;6.938;2023-03-01T08:59:29;19.90;46.60
2955;DHT22;1487;51.470;6.938;2023-03-01T09:01:56;20.30;46.00
2955;DHT22;1487;51.470;6.938;2023-03-01T09:04:23;21.10;46.10
2955;DHT22;1487;51.470;6.938;2023-03-01T09:06:50;21.40;44.30
2955;DHT22;1487;51.470;6.938;2023-03-01T09:09:17;21.40;42.80
2955;DHT22;1487;51.470;6.938;2023-03-01T09:11:44;21.00;42.40
2955;DHT22;1487;51.470;6.938;2023-03-01T09:14:12;20.90;43.30
2955;DHT22;1487;51.470;6.938;2023-03-01T09:16:40;21.20;42.60
2955;DHT22;1487;51.470;6.938;2023-03-01T09:19:07;20.70;41.50
2955;DHT22;1487;51.470;6.938;2023-03-01T09:21:34;20.60;42.70
2955;DHT22;1487;51.470;6.938;2023-03-01T09:24:00;20.30;43.10
2955;DHT22;1487;51.470;6.938;2023-03-01T09:26:28;20.80;43.60
2955;DHT22;1487;51.470;6.938;2023-03-01T09:28:55;21.30;42.40
2955;DHT22;1487;51.470;6.938;2023-03-01T09:31:23;19.80;41.10
2955;DHT22;1487;51.470;6.938;2023-03-01T09:33:53;20.30;43.50
2955;DHT22;1487;51.470;6.938;2023-03-01T09:36:22;20.60;41.60
2955;DHT22;1487;51.470;6.938;2023-03-01T09:38:49;21.00;42.20
2955;DHT22;1487;51.470;6.938;2023-03-01T09:41:36;21.50;42.00
2955;DHT22;1487;51.470;6.938;2023-03-01T09:44:12;21.40;41.40
2955;DHT22;1487;51.470;6.938;2023-03-01T09:46:43;21.70;40.90
2955;DHT22;1487;51.470;6.938;2023-03-01T09:49:17;21.40;40.30
2955;DHT22;1487;51.470;6.938;2023-03-01T09:51:54;20.50;41.00
2955;DHT22;1487;51.470;6.938;2023-03-01T09:54:22;19.20;40.20
2955;DHT22;1487;51.470;6.938;2023-03-01T09:57:12;18.60;43.50
2955;DHT22;1487;51.470;6.938;2023-03-01T09:59:54;17.90;41.90
2955;DHT22;1487;51.470;6.938;2023-03-01T10:02:30;16.50;42.80
2955;DHT22;1487;51.470;6.938;2023-03-01T10:05:14;15.10;44.50
2955;DHT22;1487;51.470;6.938;2023-03-01T10:07:54;14.60;46.00
2955;DHT22;1487;51.470;6.938;2023-03-01T10:10:28;14.30;46.40
2955;DHT22;1487;51.470;6.938;2023-03-01T10:13:00;14.20;47.40
2955;DHT22;1487;51.470;6.938;2023-03-01T10:15:34;13.30;46.60
2955;DHT22;1487;51.470;6.938;2023-03-01T10:18:04;12.50;47.70
2955;DHT22;1487;51.470;6.938;2023-03-01T10:20:42;12.20;48.70
2955;DHT22;1487;51.470;6.938;2023-03-01T10:23:10;11.90;49.30
2955;DHT22;1487;51.470;6.938;2023-03-01T10:25:59;12.00;49.60
2955;DHT22;1487;51.470;6.938;2023-03-01T10:28:35;12.10;49.00
2955;DHT22;1487;51.470;6.938;2023-03-01T10:31:04;11.40;48.60
2955;DHT22;1487;51.470;6.938;2023-03-01T10:33:33;10.80;49.10
2955;DHT22;1487;51.470;6.938;2023-03-01T10:36:04;10.80;50.60
2955;DHT22;1487;51.470;6.938;2023-03-01T10:38:46;10.90;50.10
2955;DHT22;1487;51.470;6.938;2023-03-01T10:41:13;10.80;51.40
2955;DHT22;1487;51.470;6.938;2023-03-01T10:43:45;11.00;50.70
2955;DHT22;1487;51.470;6.938;2023-03-01T10:46:32;11.00;49.90
2955;DHT22;1487;51.470;6.938;2023-03-01T10:49:07;11.30;49.50
2955;DHT22;1487;51.470;6.938;2023-03-01T10:51:40;11.30;49.30
2955;DHT22;1487;51.470;6.938;2023-03-01T10:54:17;11.30;48.90
2955;DHT22;1487;51.470;6.938;2023-03-01T10:56:49;11.40;49.10
2955;DHT22;1487;51.470;6.938;2023-03-01T10:59:24;11.60;49.80
2955;DHT22;1487;51.470;6.938;2023-03-01T11:02:07;12.30;48.90
2955;DHT22;1487;51.470;6.938;2023-03-01T11:04:39;12.60;48.10
2955;DHT22;1487;51.470;6.938;2023-03-01T11:07:09;13.10;48.10
2955;DHT22;1487;51.470;6.938;2023-03-01T11:09:35;13.70;47.50
2955;DHT22;1487;51.470;6.938;2023-03-01T11:12:08;14.30;46.30
2955;DHT22;1487;51.470;6.938;2023-03-01T11:14:46;14.90;45.70
2955;DHT22;1487;51.470;6.938;2023-03-01T11:17:18;14.90;45.20
2955;DHT22;1487;51.470;6.938;2023-03-01T11:20:00;15.20;45.40
2955;DHT22;1487;51.470;6.938;2023-03-01T11:22:30;15.80;46.50
2955;DHT22;1487;51.470;6.938;2023-03-01T11:24:59;16.00;45.30
2955;DHT22;1487;51.470;6.938;2023-03-01T11:27:30;15.90;45.20
2955;DHT22;1487;51.470;6.938;2023-03-01T11:30:00;16.40;44.40
2955;DHT22;1487;51.470;6.938;2023-03-01T11:32:34;16.40;43.70
2955;DHT22;1487;51.470;6.938;2023-03-01T11:35:08;16.40;43.70
2955;DHT22;1487;51.470;6.938;2023-03-01T11:37:41;16.80;43.80
2955;DHT22;1487;51.470;6.938;2023-03-01T11:40:13;16.70;43.60
2955;DHT22;1487;51.470;6.938;2023-03-01T11:43:00;17.00;44.00
2955;DHT22;1487;51.470;6.938;2023-03-01T11:45:34;16.90;42.50
2955;DHT22;1487;51.470;6.938;2023-03-01T11:48:24;16.90;44.00
2955;DHT22;1487;51.470;6.938;2023-03-01T11:50:55;16.80;43.30
2955;DHT22;1487;51.470;6.938;2023-03-01T11:53:34;17.50;44.80
2955;DHT22;1487;51.470;6.938;2023-03-01T11:56:13;17.90;44.00
2955;DHT22;1487;51.470;6.938;2023-03-01T11:58:58;17.70;41.90
2955;DHT22;1487;51.470;6.938;2023-03-01T12:01:42;17.50;42.60
2955;DHT22;1487;51.470;6.938;2023-03-01T12:04:48;17.60;42.00
2955;DHT22;1487;51.470;6.938;2023-03-01T12:07:19;17.30;42.30
2955;DHT22;1487;51.470;6.938;2023-03-01T12:10:04;16.80;42.20
2955;DHT22;1487;51.470;6.938;2023-03-01T12:12:52;16.80;42.80
2955;DHT22;1487;51.470;6.938;2023-03-01T12:15:47;16.70;42.90
2955;DHT22;1487;51.470;6.938;2023-03-01T12:18:41;17.30;43.20
2955;DHT22;1487;51.470;6.938;2023-03-01T12:21:23;17.00;42.50
2955;DHT22;1487;51.470;6.938;2023-03-01T12:24:25;16.20;42.40
2955;DHT22;1487;51.470;6.938;2023-03-01T12:27:10;16.30;43.70
2955;DHT22;1487;51.470;6.938;2023-03-01T12:29:43;16.30;43.50
2955;DHT22;1487;51.470;6.938;2023-03-01T12:32:39;16.20;42.80
2955;DHT22;1487;51.470;6.938;2023-03-01T12:35:25;16.20;43.70
2955;DHT22;1487;51.470;6.938;2023-03-01T12:37:59;15.90;43.00
2955;DHT22;1487;51.470;6.938;2023-03-01T12:40:53;15.10;43.50
2955;DHT22;1487;51.470;6.938;2023-03-01T12:43:39;14.40;44.50
2955;DHT22;1487;51.470;6.938;2023-03-01T12:46:25;14.50;45.50
2955;DHT22;1487;51.470;6.938;2023-03-01T12:49:04;14.20;44.90
2955;DHT22;1487;51.470;6.938;2023-03-01T12:51:36;14.20;45.40
2955;DHT22;1487;51.470;6.938;2023-03-01T12:54:11;14.90;45.10
2955;DHT22;1487;51.470;6.938;2023-03-01T12:56:41;15.00;44.00
2955;DHT22;1487;51.470;6.938;2023-03-01T12:59:17;15.00;43.80
2955;DHT22;1487;51.470;6.938;2023-03-01T13:01:51;14.90;44.50
2955;DHT22;1487;51.470;6.938;2023-03-01T13:04:52;14.50;45.10
2955;DHT22;1487;51.470;6.938;2023-03-01T13:07:27;14.20;45.20
2955;DHT22;1487;51.470;6.938;2023-03-01T13:10:06;13.70;45.50
2955;DHT22;1487;51.470;6.938;2023-03-01T13:12:51;14.00;45.70
2955;DHT22;1487;51.470;6.938;2023-03-01T13:15:31;14.00;45.50
2955;DHT22;1487;51.470;6.938;2023-03-01T13:18:00;14.40;45.20
2955;DHT22;1487;51.470;6.938;2023-03-01T13:20:31;15.00;44.50
2955;DHT22;1487;51.470;6.938;2023-03-01T13:23:06;14.80;44.00
2955;DHT22;1487;51.470;6.938;2023-03-01T13:25:33;14.80;44.70
2955;DHT22;1487;51.470;6.938;2023-03-01T13:31:03;15.20;45.40
2955;DHT22;1487;51.470;6.938;2023-03-01T13:33:40;14.90;45.90
2955;DHT22;1487;51.470;6.938;2023-03-01T13:36:08;15.40;45.40
2955;DHT22;1487;51.470;6.938;2023-03-01T13:38:45;15.40;45.30
2955;DHT22;1487;51.470;6.938;2023-03-01T13:41:13;15.40;45.60
2955;DHT22;1487;51.470;6.938;2023-03-01T13:43:42;15.60;45.60
2955;DHT22;1487;51.470;6.938;2023-03-01T13:46:20;15.80;45.30
2955;DHT22;1487;51.470;6.938;2023-03-01T13:48:50;15.00;45.00
2955;DHT22;1487;51.470;6.938;2023-03-01T13:51:22;14.80;44.70
2955;DHT22;1487;51.470;6.938;2023-03-01T13:53:50;14.90;44.90
2955;DHT22;1487;51.470;6.938;2023-03-01T13:56:19;14.10;44.70
2955;DHT22;1487;51.470;6.938;2023-03-01T13:58:50;13.30;45.90
2955;DHT22;1487;51.470;6.938;2023-03-01T14:01:25;13.70;46.90
2955;DHT22;1487;51.470;6.938;2023-03-01T14:03:53;13.80;47.00
2955;DHT22;1487;51.470;6.938;2023-03-01T14:06:21;13.80;46.30
2955;DHT22;1487;51.470;6.938;2023-03-01T14:08:51;13.20;46.10
2955;DHT22;1487;51.470;6.938;2023-03-01T14:11:30;13.00;47.10
2955;DHT22;1487;51.470;6.938;2023-03-01T14:14:18;13.10;47.50
2955;DHT22;1487;51.470;6.938;2023-03-01T14:16:57;13.30;47.90
2955;DHT22;1487;51.470;6.938;2023-03-01T14:19:27;13.80;47.20
2955;DHT22;1487;51.470;6.938;2023-03-01T14:22:10;13.80;46.50
2955;DHT22;1487;51.470;6.938;2023-03-01T14:24:44;13.40;46.90
2955;DHT22;1487;51.470;6.938;2023-03-01T14:27:12;13.20;46.90
2955;DHT22;1487;51.470;6.938;2023-03-01T14:29:40;12.90;47.40
2955;DHT22;1487;51.470;6.938;2023-03-01T14:32:18;13.20;48.00
2955;DHT22;1487;51.470;6.938;2023-03-01T14:34:47;13.40;47.80
2955;DHT22;1487;51.470;6.938;2023-03-01T14:37:20;13.50;48.10
2955;DHT22;1487;51.470;6.938;2023-03-01T14:39:48;13.60;47.40
2955;DHT22;1487;51.470;6.938;2023-03-01T14:42:15;13.50;47.50
2955;DHT22;1487;51.470;6.938;2023-03-01T14:44:43;13.60;48.40
2955;DHT22;1487;51.470;6.938;2023-03-01T14:47:15;13.40;48.20
2955;DHT22;1487;51.470;6.938;2023-03-01T14:49:43;13.20;48.40
2955;DHT22;1487;51.470;6.938;2023-03-01T14:52:19;13.10;48.40
2955;DHT22;1487;51.470;6.938;2023-03-01T14:54:48;13.50;48.90
2955;DHT22;1487;51.470;6.938;2023-03-01T14:57:18;13.50;48.70
2955;DHT22;1487;51.470;6.938;2023-03-01T14:59:47;12.80;48.30
2955;DHT22;1487;51.470;6.938;2023-03-01T15:02:18;12.40;48.60
2955;DHT22;1487;51.470;6.938;2023-03-01T15:04:49;12.50;48.80
2955;DHT22;1487;51.470;6.938;2023-03-01T15:07:17;12.50;49.10
2955;DHT22;1487;51.470;6.938;2023-03-01T15:09:44;12.40;49.30
2955;DHT22;1487;51.470;6.938;2023-03-01T15:12:34;12.10;49.20
2955;DHT22;1487;51.470;6.938;2023-03-01T15:15:01;12.10;49.60
2955;DHT22;1487;51.470;6.938;2023-03-01T15:17:32;12.00;50.00
2955;DHT22;1487;51.470;6.938;2023-03-01T15:20:00;11.60;50.10
2955;DHT22;1487;51.470;6.938;2023-03-01T15:22:29;11.20;50.60
2955;DHT22;1487;51.470;6.938;2023-03-01T15:24:56;11.20;51.00
2955;DHT22;1487;51.470;6.938;2023-03-01T15:27:24;11.10;51.00
2955;DHT22;1487;51.470;6.938;2023-03-01T15:29:53;11.20;51.60
2955;DHT22;1487;51.470;6.938;2023-03-01T15:32:28;11.20;51.30
2955;DHT22;1487;51.470;6.938;2023-03-01T15:34:59;10.90;51.20
2955;DHT22;1487;51.470;6.938;2023-03-01T15:37:40;10.60;51.30
2955;DHT22;1487;51.470;6.938;2023-03-01T15:40:21;10.20;51.80
2955;DHT22;1487;51.470;6.938;2023-03-01T15:42:57;9.50;53.40
2955;DHT22;1487;51.470;6.938;2023-03-01T15:45:25;8.80;54.20
2955;DHT22;1487;51.470;6.938;2023-03-01T15:47:54;8.40;55.30
2955;DHT22;1487;51.470;6.938;2023-03-01T15:50:26;8.20;55.80
2955;DHT22;1487;51.470;6.938;2023-03-01T15:52:55;8.10;55.80
2955;DHT22;1487;51.470;6.938;2023-03-01T15:55:25;7.80;56.40
2955;DHT22;1487;51.470;6.938;2023-03-01T15:58:00;7.70;57.30
2955;DHT22;1487;51.470;6.938;2023-03-01T16:00:28;7.40;57.50
2955;DHT22;1487;51.470;6.938;2023-03-01T16:02:55;7.20;58.00
2955;DHT22;1487;51.470;6.938;2023-03-01T16:05:25;7.00;58.20
2955;DHT22;1487;51.470;6.938;2023-03-01T16:07:53;6.80;58.60
2955;DHT22;1487;51.470;6.938;2023-03-01T16:10:20;6.70;59.00
2955;DHT22;1487;51.470;6.938;2023-03-01T16:12:48;6.60;59.20
2955;DHT22;1487;51.470;6.938;2023-03-01T16:15:19;6.40;59.60
2955;DHT22;1487;51.470;6.938;2023-03-01T16:17:46;6.40;60.00
2955;DHT22;1487;51.470;6.938;2023-03-01T16:20:13;6.30;60.20
2955;DHT22;1487;51.470;6.938;2023-03-01T16:22:43;6.10;60.50
2955;DHT22;1487;51.470;6.938;2023-03-01T16:25:10;6.00;61.40
2955;DHT22;1487;51.470;6.938;2023-03-01T16:27:37;5.80;61.80